createdAt,value
2023-11-22T00:01:33.392Z,100.00
2023-11-22T00:03:37.882Z,100.00
2023-11-22T00:05:41.081Z,100.00
2023-11-22T00:07:43.976Z,100.00
2023-11-22T00:09:48.540Z,100.00
2023-11-22T00:11:51.409Z,100.00
2023-11-22T00:13:58.458Z,100.00
2023-11-22T00:16:01.880Z,100.00
2023-11-22T00:18:05.128Z,100.00
2023-11-22T00:20:09.539Z,100.00
2023-11-22T00:22:14.854Z,100.00
2023-11-22T00:24:18.011Z,100.00
2023-11-22T00:26:21.197Z,100.00
2023-11-22T00:28:24.362Z,100.00
2023-11-22T00:30:27.291Z,100.00
2023-11-22T00:32:30.789Z,100.00
2023-11-22T00:34:33.557Z,100.00
2023-11-22T00:36:36.328Z,100.00
2023-11-22T00:38:40.913Z,100.00
2023-11-22T00:40:43.775Z,100.00
2023-11-22T00:42:46.491Z,100.00
2023-11-22T00:44:49.547Z,100.00
2023-11-22T00:46:52.481Z,100.00
2023-11-22T00:48:55.387Z,100.00
2023-11-22T00:50:58.249Z,100.00
2023-11-22T00:53:01.092Z,100.00
2023-11-22T00:55:04.182Z,100.00
2023-11-22T00:57:08.381Z,100.00
2023-11-22T00:59:11.203Z,100.00
2023-11-22T01:01:13.994Z,100.00
2023-11-22T01:03:16.779Z,100.00
2023-11-22T01:05:19.620Z,100.00
2023-11-22T01:07:22.562Z,100.00
2023-11-22T01:09:25.701Z,100.00
2023-11-22T01:11:28.595Z,100.00
2023-11-22T01:13:31.470Z,100.00
2023-11-22T01:15:34.432Z,100.00
2023-11-22T01:17:37.383Z,100.00
2023-11-22T01:19:40.213Z,100.00
2023-11-22T01:21:43.274Z,100.00
2023-11-22T01:23:47.196Z,100.00
2023-11-22T01:25:51.506Z,100.00
2023-11-22T01:27:54.342Z,100.00
2023-11-22T01:29:57.316Z,100.00
2023-11-22T01:32:00.152Z,100.00
2023-11-22T01:34:06.370Z,100.00
2023-11-22T01:36:10.934Z,100.00
2023-11-22T01:38:13.806Z,100.00
2023-11-22T01:40:16.700Z,100.00
2023-11-22T01:42:19.657Z,100.00
2023-11-22T01:44:22.584Z,100.00
2023-11-22T01:46:27.260Z,100.00
2023-11-22T01:48:31.710Z,100.00
2023-11-22T01:50:34.807Z,100.00
2023-11-22T01:52:38.146Z,100.00
2023-11-22T01:54:41.925Z,100.00
2023-11-22T01:56:45.660Z,100.00
2023-11-22T01:58:49.459Z,100.00
2023-11-22T02:00:54.062Z,100.00
2023-11-22T02:02:57.202Z,100.00
2023-11-22T02:05:00.143Z,100.00
2023-11-22T02:07:04.173Z,100.00
2023-11-22T02:09:07.108Z,100.00
2023-11-22T02:11:10.175Z,100.00
2023-11-22T02:13:13.275Z,100.00
2023-11-22T02:15:16.631Z,100.00
2023-11-22T02:17:19.709Z,100.00
2023-11-22T02:19:23.101Z,100.00
2023-11-22T02:21:25.869Z,100.00
2023-11-22T02:23:29.990Z,100.00
2023-11-22T02:25:32.766Z,100.00
2023-11-22T02:27:35.634Z,100.00
2023-11-22T02:29:38.449Z,100.00
2023-11-22T02:31:44.344Z,100.00
2023-11-22T02:33:47.237Z,100.00
2023-11-22T02:35:51.144Z,100.00
2023-11-22T02:37:56.878Z,100.00
2023-11-22T02:40:07.180Z,100.00
2023-11-22T02:42:10.247Z,100.00
2023-11-22T02:44:17.091Z,100.00
2023-11-22T02:46:20.074Z,100.00
2023-11-22T02:48:23.948Z,100.00
2023-11-22T02:50:28.321Z,100.00
2023-11-22T02:52:31.169Z,100.00
2023-11-22T02:54:33.937Z,99.46
2023-11-22T02:56:37.033Z,99.59
2023-11-22T02:58:39.894Z,99.93
2023-11-22T03:00:42.652Z,99.59
2023-11-22T03:02:48.131Z,100.00
2023-11-22T03:04:51.904Z,99.38
2023-11-22T03:06:54.738Z,99.82
2023-11-22T03:08:58.224Z,98.93
2023-11-22T03:11:01.111Z,99.34
2023-11-22T03:13:05.606Z,98.98
2023-11-22T03:15:09.028Z,99.02
2023-11-22T03:17:11.839Z,98.90
2023-11-22T03:19:14.793Z,98.85
2023-11-22T03:21:18.596Z,99.26
2023-11-22T03:23:21.873Z,98.64
2023-11-22T03:25:24.800Z,98.96
2023-11-22T03:27:27.640Z,98.87
2023-11-22T03:29:31.000Z,99.11
2023-11-22T03:31:34.049Z,99.21
2023-11-22T03:33:36.872Z,98.89
2023-11-22T03:35:39.933Z,99.42
2023-11-22T03:37:42.964Z,98.30
2023-11-22T03:39:49.975Z,98.75
2023-11-22T03:41:52.828Z,98.96
2023-11-22T03:43:55.695Z,98.30
2023-11-22T03:45:58.497Z,98.26
2023-11-22T03:48:01.365Z,98.18
2023-11-22T03:50:04.510Z,98.69
2023-11-22T03:52:07.430Z,97.77
2023-11-22T03:54:12.310Z,97.60
2023-11-22T03:56:15.075Z,98.64
2023-11-22T03:58:19.467Z,98.02
2023-11-22T04:00:22.375Z,98.14
2023-11-22T04:02:25.164Z,98.69
2023-11-22T04:04:27.983Z,98.65
2023-11-22T04:06:30.887Z,98.63
2023-11-22T04:08:33.700Z,98.58
2023-11-22T04:10:36.801Z,98.31
2023-11-22T04:12:39.742Z,98.31
2023-11-22T04:14:42.544Z,98.23
2023-11-22T04:16:45.777Z,98.50
2023-11-22T04:18:48.799Z,98.38
2023-11-22T04:20:52.296Z,97.87
2023-11-22T04:22:55.774Z,97.67
2023-11-22T04:24:59.397Z,98.34
2023-11-22T04:27:04.190Z,97.76
2023-11-22T04:29:07.670Z,97.64
2023-11-22T04:31:10.548Z,98.15
2023-11-22T04:33:13.688Z,98.08
2023-11-22T04:35:16.673Z,98.14
2023-11-22T04:37:19.724Z,97.71
2023-11-22T04:39:22.525Z,97.67
2023-11-22T04:41:27.761Z,97.57
2023-11-22T04:43:30.663Z,97.78
2023-11-22T04:45:33.492Z,97.16
2023-11-22T04:47:36.519Z,97.01
2023-11-22T04:49:39.625Z,97.51
2023-11-22T04:51:44.524Z,97.52
2023-11-22T04:53:47.441Z,96.97
2023-11-22T04:55:50.476Z,97.16
2023-11-22T04:57:54.266Z,97.16
2023-11-22T04:59:57.306Z,97.19
2023-11-22T05:02:00.153Z,96.63
2023-11-22T05:04:03.792Z,96.99
2023-11-22T05:06:08.475Z,96.55
2023-11-22T05:08:11.309Z,96.37
2023-11-22T05:10:14.217Z,95.93
2023-11-22T05:12:17.238Z,96.33
2023-11-22T05:14:20.117Z,96.41
2023-11-22T05:16:22.966Z,95.83
2023-11-22T05:18:26.662Z,96.52
2023-11-22T05:20:29.559Z,96.23
2023-11-22T05:22:32.374Z,96.00
2023-11-22T05:24:36.322Z,95.69
2023-11-22T05:26:39.369Z,95.46
2023-11-22T05:28:42.171Z,94.91
2023-11-22T05:30:45.023Z,95.38
2023-11-22T05:32:47.944Z,94.59
2023-11-22T05:34:50.797Z,94.29
2023-11-22T05:36:54.186Z,94.50
2023-11-22T05:39:00.100Z,94.04
2023-11-22T05:41:03.119Z,93.87
2023-11-22T05:43:07.240Z,93.72
2023-11-22T05:45:11.394Z,93.31
2023-11-22T05:47:14.752Z,93.03
2023-11-22T05:49:17.601Z,92.14
2023-11-22T05:51:21.282Z,92.49
2023-11-22T05:53:24.065Z,92.21
2023-11-22T05:55:26.896Z,92.80
2023-11-22T05:57:29.734Z,92.56
2023-11-22T05:59:32.549Z,93.32
2023-11-22T06:01:35.371Z,92.60
2023-11-22T06:03:38.370Z,92.45
2023-11-22T06:05:41.966Z,93.00
2023-11-22T06:07:45.116Z,92.54
2023-11-22T06:09:48.557Z,92.56
2023-11-22T06:11:51.450Z,92.39
2023-11-22T06:13:54.240Z,92.06
2023-11-22T06:15:57.053Z,91.88
2023-11-22T06:18:00.008Z,91.84
2023-11-22T06:20:04.734Z,92.09
2023-11-22T06:22:08.253Z,92.33
2023-11-22T06:24:12.447Z,91.34
2023-11-22T06:26:16.448Z,91.77
2023-11-22T06:28:19.401Z,91.84
2023-11-22T06:30:22.196Z,91.53
2023-11-22T06:32:25.088Z,92.19
2023-11-22T06:34:27.906Z,91.29
2023-11-22T06:36:31.047Z,91.44
2023-11-22T06:38:33.968Z,91.38
2023-11-22T06:40:37.158Z,90.64
2023-11-22T06:42:40.954Z,90.75
2023-11-22T06:44:44.176Z,90.96
2023-11-22T06:46:47.040Z,90.49
2023-11-22T06:48:50.867Z,90.32
2023-11-22T06:50:53.709Z,90.23
2023-11-22T06:52:56.531Z,90.40
2023-11-22T06:54:59.389Z,90.55
2023-11-22T06:57:02.187Z,89.47
2023-11-22T06:59:05.103Z,89.92
2023-11-22T07:01:08.789Z,89.71
2023-11-22T07:03:12.300Z,89.34
2023-11-22T07:05:15.476Z,89.76
2023-11-22T07:07:18.397Z,89.00
2023-11-22T07:09:21.262Z,88.56
2023-11-22T07:11:24.973Z,89.31
2023-11-22T07:13:28.071Z,89.52
2023-11-22T07:15:31.573Z,88.69
2023-11-22T07:17:34.985Z,88.64
2023-11-22T07:19:39.562Z,88.64
2023-11-22T07:21:42.448Z,88.78
2023-11-22T07:23:46.754Z,87.73
2023-11-22T07:25:49.606Z,87.71
2023-11-22T07:27:54.596Z,88.52
2023-11-22T07:29:57.624Z,89.57
2023-11-22T07:32:00.440Z,89.63
2023-11-22T07:34:03.319Z,89.47
2023-11-22T07:36:07.142Z,89.13
2023-11-22T07:38:12.137Z,89.15
2023-11-22T07:40:15.705Z,89.59
2023-11-22T07:42:19.681Z,90.28
2023-11-22T07:44:23.283Z,89.99
2023-11-22T07:46:27.027Z,90.58
2023-11-22T07:48:29.974Z,90.55
2023-11-22T07:50:32.774Z,90.14
2023-11-22T07:52:35.714Z,88.18
2023-11-22T07:54:38.579Z,89.13
2023-11-22T07:56:44.497Z,89.46
2023-11-22T07:58:47.343Z,89.93
2023-11-22T08:00:50.129Z,90.50
2023-11-22T08:02:55.689Z,89.53
2023-11-22T08:04:58.628Z,89.55
2023-11-22T08:07:02.865Z,88.23
2023-11-22T08:09:06.194Z,88.71
2023-11-22T08:11:16.347Z,89.92
2023-11-22T08:13:20.947Z,89.91
2023-11-22T08:15:23.835Z,89.14
2023-11-22T08:17:26.649Z,88.82
2023-11-22T08:19:29.712Z,88.12
2023-11-22T08:21:33.923Z,87.72
2023-11-22T08:23:36.774Z,87.13
2023-11-22T08:25:41.015Z,87.00
2023-11-22T08:27:45.091Z,86.50
2023-11-22T08:29:49.271Z,86.81
2023-11-22T08:31:52.215Z,86.80
2023-11-22T08:33:55.266Z,86.70
2023-11-22T08:36:02.348Z,87.74
2023-11-22T08:38:06.441Z,87.09
2023-11-22T08:40:12.786Z,87.57
2023-11-22T08:42:16.067Z,87.45
2023-11-22T08:44:20.809Z,87.61
2023-11-22T08:46:24.706Z,87.74
2023-11-22T08:48:27.932Z,87.25
2023-11-22T08:50:30.791Z,87.00
2023-11-22T08:52:33.691Z,87.72
2023-11-22T08:54:36.486Z,88.35
2023-11-22T08:56:39.514Z,87.89
2023-11-22T08:58:44.357Z,89.05
2023-11-22T09:00:47.401Z,88.98
2023-11-22T09:02:51.674Z,89.54
2023-11-22T09:04:54.510Z,89.72
2023-11-22T09:06:57.978Z,89.48
2023-11-22T09:09:01.337Z,90.83
2023-11-22T09:11:08.079Z,89.92
2023-11-22T09:13:12.022Z,90.05
2023-11-22T09:15:19.108Z,90.31
2023-11-22T09:17:22.435Z,90.58
2023-11-22T09:19:26.386Z,90.02
2023-11-22T09:21:29.416Z,91.58
2023-11-22T09:23:32.816Z,90.57
2023-11-22T09:25:36.991Z,90.43
2023-11-22T09:27:41.333Z,90.26
2023-11-22T09:29:44.327Z,90.29
2023-11-22T09:31:48.331Z,89.81
2023-11-22T09:33:51.245Z,89.98
2023-11-22T09:35:54.298Z,89.17
2023-11-22T09:37:58.192Z,88.16
2023-11-22T09:40:03.432Z,89.52
2023-11-22T09:42:07.882Z,88.70
2023-11-22T09:44:12.498Z,88.17
2023-11-22T09:46:15.762Z,88.13
2023-11-22T09:48:20.303Z,89.12
2023-11-22T09:50:31.451Z,89.14
2023-11-22T09:52:40.370Z,89.25
2023-11-22T09:54:44.744Z,88.97
2023-11-22T09:56:52.334Z,90.51
2023-11-22T09:58:58.759Z,89.82
2023-11-22T10:01:03.941Z,89.58
2023-11-22T10:03:07.098Z,89.21
2023-11-22T10:05:10.885Z,89.94
2023-11-22T10:07:15.197Z,89.35
2023-11-22T10:09:18.849Z,90.44
2023-11-22T10:11:22.748Z,89.91
2023-11-22T10:13:25.698Z,89.31
2023-11-22T10:15:29.728Z,89.51
2023-11-22T10:17:32.740Z,88.27
2023-11-22T10:19:35.575Z,88.74
2023-11-22T10:21:41.252Z,89.29
2023-11-22T10:23:45.526Z,90.10
2023-11-22T10:25:53.626Z,89.29
2023-11-22T10:27:56.757Z,89.70
2023-11-22T10:29:59.998Z,89.13
2023-11-22T10:32:04.857Z,89.77
2023-11-22T10:34:07.648Z,90.27
2023-11-22T10:36:11.134Z,90.01
2023-11-22T10:38:18.278Z,89.35
2023-11-22T10:40:21.718Z,89.09
2023-11-22T10:42:25.692Z,89.80
2023-11-22T10:44:28.813Z,90.26
2023-11-22T10:46:32.099Z,90.17
2023-11-22T10:48:35.274Z,90.19
2023-11-22T10:50:38.795Z,90.24
2023-11-22T10:52:46.236Z,90.59
2023-11-22T10:55:03.237Z,89.61
2023-11-22T10:57:08.618Z,89.22
2023-11-22T10:59:15.321Z,89.35
2023-11-22T11:01:23.489Z,90.19
2023-11-22T11:03:32.140Z,90.00
2023-11-22T11:05:39.656Z,90.09
2023-11-22T11:07:52.512Z,89.15
2023-11-22T11:09:57.005Z,90.16
2023-11-22T11:12:00.898Z,90.74
2023-11-22T11:14:06.855Z,90.65
2023-11-22T11:16:10.479Z,91.43
2023-11-22T11:18:17.029Z,91.15
2023-11-22T11:20:21.262Z,91.61
2023-11-22T11:22:24.359Z,92.10
2023-11-22T11:24:27.125Z,92.13
2023-11-22T11:26:33.181Z,91.85
2023-11-22T11:28:49.317Z,92.09
2023-11-22T11:30:52.256Z,93.28
2023-11-22T11:32:55.114Z,93.28
2023-11-22T11:34:58.094Z,93.26
2023-11-22T11:37:01.622Z,93.73
2023-11-22T11:39:15.985Z,93.98
2023-11-22T11:41:19.339Z,93.90
2023-11-22T11:43:40.330Z,94.06
2023-11-22T11:45:48.124Z,93.65
2023-11-22T11:47:51.413Z,94.35
2023-11-22T11:49:54.182Z,94.47
2023-11-22T11:51:56.981Z,94.51
2023-11-22T11:54:00.351Z,93.98
2023-11-22T11:56:03.875Z,94.19
2023-11-22T11:58:10.545Z,94.79
2023-11-22T12:00:15.622Z,94.12
2023-11-22T12:02:18.772Z,93.21
2023-11-22T12:04:21.673Z,93.28
2023-11-22T12:06:24.457Z,93.43
2023-11-22T12:08:30.918Z,93.37
2023-11-22T12:10:33.865Z,93.66
2023-11-22T12:12:36.641Z,94.48
2023-11-22T12:14:40.700Z,94.67
2023-11-22T12:16:49.026Z,94.35
2023-11-22T12:18:53.039Z,95.54
2023-11-22T12:20:58.374Z,95.33
2023-11-22T12:23:04.724Z,94.85
2023-11-22T12:25:08.396Z,95.43
2023-11-22T12:27:11.965Z,94.64
2023-11-22T12:29:15.363Z,95.28
2023-11-22T12:31:18.792Z,95.40
2023-11-22T12:33:22.281Z,95.66
2023-11-22T12:35:25.513Z,95.56
2023-11-22T12:37:28.933Z,95.19
2023-11-22T12:39:33.680Z,95.90
2023-11-22T12:41:36.550Z,95.03
2023-11-22T12:43:48.597Z,95.72
2023-11-22T12:46:20.014Z,94.46
2023-11-22T12:48:27.117Z,94.86
2023-11-22T12:50:40.946Z,95.35
2023-11-22T12:52:43.765Z,95.98
2023-11-22T12:54:49.186Z,95.48
2023-11-22T12:56:55.749Z,94.89
2023-11-22T12:58:58.618Z,94.83
2023-11-22T13:01:02.482Z,95.12
2023-11-22T13:03:13.503Z,95.63
2023-11-22T13:05:17.860Z,95.61
2023-11-22T13:07:21.321Z,96.09
2023-11-22T13:09:24.384Z,95.52
2023-11-22T13:11:27.456Z,95.59
2023-11-22T13:13:32.543Z,96.24
2023-11-22T13:15:36.284Z,96.45
2023-11-22T13:17:42.564Z,95.79
2023-11-22T13:19:45.442Z,95.24
2023-11-22T13:21:49.137Z,95.30
2023-11-22T13:23:52.016Z,94.81
2023-11-22T13:25:54.809Z,94.89
2023-11-22T13:27:58.127Z,94.75
2023-11-22T13:30:00.894Z,94.69
2023-11-22T13:32:03.903Z,94.56
2023-11-22T13:34:07.009Z,95.02
2023-11-22T13:36:10.020Z,94.52
2023-11-22T13:38:13.147Z,94.42
2023-11-22T13:40:23.435Z,94.32
2023-11-22T13:42:26.401Z,94.37
2023-11-22T13:44:29.305Z,94.41
2023-11-22T13:46:32.393Z,94.55
2023-11-22T13:48:35.284Z,93.94
2023-11-22T13:50:38.746Z,94.02
2023-11-22T13:52:41.913Z,94.36
2023-11-22T13:54:44.772Z,93.89
2023-11-22T13:56:47.689Z,94.29
2023-11-22T13:58:50.749Z,94.65
2023-11-22T14:00:55.738Z,93.70
2023-11-22T14:03:05.884Z,94.16
2023-11-22T14:05:09.277Z,94.09
2023-11-22T14:07:12.531Z,93.73
2023-11-22T14:09:16.158Z,93.70
2023-11-22T14:11:19.223Z,93.77
2023-11-22T14:13:22.744Z,93.42
2023-11-22T14:15:26.014Z,93.35
2023-11-22T14:17:28.981Z,93.95
2023-11-22T14:19:31.774Z,93.38
2023-11-22T14:21:35.441Z,93.62
2023-11-22T14:23:38.286Z,93.09
2023-11-22T14:25:42.680Z,93.90
2023-11-22T14:27:47.810Z,93.51
2023-11-22T14:29:51.787Z,93.50
2023-11-22T14:31:54.964Z,93.74
2023-11-22T14:33:58.448Z,93.78
2023-11-22T14:36:01.569Z,93.58
2023-11-22T14:38:07.522Z,93.65
2023-11-22T14:40:18.242Z,93.04
2023-11-22T14:42:22.583Z,93.21
2023-11-22T14:44:25.921Z,93.19
2023-11-22T14:46:28.829Z,93.74
2023-11-22T14:48:32.658Z,94.00
2023-11-22T14:50:35.878Z,93.58
2023-11-22T14:52:38.913Z,93.44
2023-11-22T14:54:42.021Z,92.90
2023-11-22T14:56:46.590Z,93.50
2023-11-22T14:58:55.401Z,93.05
2023-11-22T15:00:58.664Z,92.97
2023-11-22T15:03:01.797Z,93.77
2023-11-22T15:05:06.150Z,93.57
2023-11-22T15:07:09.209Z,93.33
2023-11-22T15:09:16.441Z,93.63
2023-11-22T15:11:19.528Z,93.81
2023-11-22T15:13:22.606Z,93.74
2023-11-22T15:15:27.253Z,94.26
2023-11-22T15:17:30.767Z,94.21
2023-11-22T15:19:33.843Z,94.00
2023-11-22T15:21:36.884Z,93.76
2023-11-22T15:23:39.770Z,93.91
2023-11-22T15:25:43.032Z,93.18
2023-11-22T15:27:46.028Z,93.36
2023-11-22T15:29:49.072Z,93.68
2023-11-22T15:31:53.429Z,93.93
2023-11-22T15:33:56.433Z,93.23
2023-11-22T15:35:59.391Z,93.34
2023-11-22T15:38:02.329Z,93.17
2023-11-22T15:40:05.993Z,93.17
2023-11-22T15:42:09.058Z,93.33
2023-11-22T15:44:14.178Z,93.73
2023-11-22T15:46:20.017Z,93.51
2023-11-22T15:48:23.019Z,93.88
2023-11-22T15:50:26.489Z,93.33
2023-11-22T15:52:29.669Z,92.76
2023-11-22T15:54:33.634Z,93.23
2023-11-22T15:56:36.562Z,93.61
2023-11-22T15:58:43.141Z,93.24
2023-11-22T16:00:48.578Z,93.16
2023-11-22T16:02:51.571Z,93.35
2023-11-22T16:04:54.655Z,93.33
2023-11-22T16:06:57.690Z,93.61
2023-11-22T16:09:00.673Z,93.15
2023-11-22T16:11:03.509Z,93.73
2023-11-22T16:13:06.286Z,93.84
2023-11-22T16:15:10.040Z,93.44
2023-11-22T16:17:15.725Z,93.63
2023-11-22T16:19:19.221Z,93.45
2023-11-22T16:21:22.043Z,93.82
2023-11-22T16:23:25.591Z,94.64
2023-11-22T16:25:28.449Z,94.42
2023-11-22T16:27:31.275Z,94.65
2023-11-22T16:29:34.545Z,94.67
2023-11-22T16:31:39.262Z,94.97
2023-11-22T16:33:42.255Z,95.07
2023-11-22T16:35:45.104Z,94.70
2023-11-22T16:37:47.957Z,93.99
2023-11-22T16:39:50.964Z,94.61
2023-11-22T16:41:54.178Z,94.34
2023-11-22T16:43:57.118Z,94.01
2023-11-22T16:46:00.023Z,94.55
2023-11-22T16:48:02.905Z,94.55
2023-11-22T16:50:07.319Z,94.00
2023-11-22T16:52:11.732Z,94.30
2023-11-22T16:54:15.255Z,93.98
2023-11-22T16:56:21.465Z,93.74
2023-11-22T16:58:24.260Z,94.17
2023-11-22T17:00:28.160Z,93.82
2023-11-22T17:02:31.033Z,94.50
2023-11-22T17:04:34.118Z,94.00
2023-11-22T17:06:36.919Z,94.20
2023-11-22T17:08:39.748Z,93.87
2023-11-22T17:10:46.323Z,93.99
2023-11-22T17:12:51.021Z,94.11
2023-11-22T17:14:55.293Z,93.83
2023-11-22T17:16:58.852Z,93.89
2023-11-22T17:19:01.789Z,93.58
2023-11-22T17:21:05.029Z,93.79
2023-11-22T17:23:07.877Z,93.39
2023-11-22T17:25:11.854Z,93.21
2023-11-22T17:27:14.991Z,93.13
2023-11-22T17:29:17.843Z,93.31
2023-11-22T17:31:21.241Z,93.32
2023-11-22T17:33:24.113Z,93.22
2023-11-22T17:35:27.168Z,93.11
2023-11-22T17:37:30.259Z,93.51
2023-11-22T17:39:33.120Z,93.24
2023-11-22T17:41:35.978Z,93.38
2023-11-22T17:43:39.061Z,93.77
2023-11-22T17:45:42.314Z,93.72
2023-11-22T17:47:45.430Z,93.64
2023-11-22T17:49:50.359Z,93.34
2023-11-22T17:51:56.156Z,93.14
2023-11-22T17:53:59.584Z,93.29
2023-11-22T17:56:03.076Z,93.48
2023-11-22T17:58:05.953Z,93.25
2023-11-22T18:00:10.879Z,93.34
2023-11-22T18:02:13.975Z,93.83
2023-11-22T18:04:17.590Z,94.02
2023-11-22T18:06:20.643Z,93.89
2023-11-22T18:08:24.009Z,94.05
2023-11-22T18:10:35.153Z,94.27
2023-11-22T18:12:44.564Z,94.02
2023-11-22T18:14:47.506Z,94.65
2023-11-22T18:16:50.924Z,94.38
2023-11-22T18:18:53.705Z,94.51
2023-11-22T18:20:56.551Z,94.76
2023-11-22T18:22:59.308Z,95.01
2023-11-22T18:25:02.388Z,95.18
2023-11-22T18:27:05.691Z,95.27
2023-11-22T18:29:08.640Z,94.45
2023-11-22T18:31:15.015Z,94.99
2023-11-22T18:33:18.478Z,94.86
2023-11-22T18:35:21.448Z,95.48
2023-11-22T18:37:24.213Z,94.96
2023-11-22T18:39:27.648Z,95.34
2023-11-22T18:41:31.558Z,95.14
2023-11-22T18:43:36.440Z,95.57
2023-11-22T18:45:39.888Z,95.41
2023-11-22T18:47:43.658Z,95.80
2023-11-22T18:49:47.744Z,95.51
2023-11-22T18:51:53.166Z,95.55
2023-11-22T18:53:56.067Z,95.93
2023-11-22T18:55:59.039Z,95.06
2023-11-22T18:58:05.672Z,95.30
2023-11-22T19:00:09.111Z,95.57
2023-11-22T19:02:13.720Z,95.70
2023-11-22T19:04:16.776Z,94.97
2023-11-22T19:06:20.036Z,95.28
2023-11-22T19:08:23.451Z,94.22
2023-11-22T19:10:27.473Z,94.51
2023-11-22T19:12:30.425Z,94.92
2023-11-22T19:14:33.253Z,95.56
2023-11-22T19:16:36.240Z,95.16
2023-11-22T19:18:39.258Z,95.45
2023-11-22T19:20:43.323Z,94.67
2023-11-22T19:22:46.311Z,95.37
2023-11-22T19:24:49.080Z,95.13
2023-11-22T19:26:52.345Z,94.86
2023-11-22T19:28:55.461Z,94.40
2023-11-22T19:30:58.752Z,94.76
2023-11-22T19:33:05.197Z,94.52
2023-11-22T19:35:08.374Z,94.90
2023-11-22T19:37:11.239Z,94.60
2023-11-22T19:39:14.488Z,95.31
2023-11-22T19:41:17.610Z,94.72
2023-11-22T19:43:20.585Z,94.53
2023-11-22T19:45:23.480Z,95.00
2023-11-22T19:47:26.212Z,95.07
2023-11-22T19:49:29.038Z,95.07
2023-11-22T19:51:32.853Z,95.41
2023-11-22T19:53:38.601Z,94.39
2023-11-22T19:55:42.011Z,93.85
2023-11-22T19:57:44.949Z,94.33
2023-11-22T19:59:47.886Z,94.54
2023-11-22T20:01:51.330Z,94.86
2023-11-22T20:03:54.350Z,94.76
2023-11-22T20:05:57.375Z,94.29
2023-11-22T20:08:00.338Z,94.22
2023-11-22T20:10:04.768Z,94.54
2023-11-22T20:12:08.010Z,94.11
2023-11-22T20:14:10.916Z,93.57
2023-11-22T20:16:13.847Z,93.78
2023-11-22T20:18:16.683Z,93.71
2023-11-22T20:20:20.603Z,93.69
2023-11-22T20:22:23.542Z,93.20
2023-11-22T20:24:26.326Z,93.69
2023-11-22T20:26:29.258Z,93.34
2023-11-22T20:28:33.177Z,93.23
2023-11-22T20:30:35.932Z,93.59
2023-11-22T20:32:38.911Z,93.77
2023-11-22T20:34:42.259Z,93.54
2023-11-22T20:36:46.579Z,93.50
2023-11-22T20:38:53.165Z,93.22
2023-11-22T20:40:56.425Z,92.82
2023-11-22T20:42:59.497Z,93.19
2023-11-22T20:45:02.923Z,93.71
2023-11-22T20:47:09.011Z,93.44
2023-11-22T20:49:11.940Z,93.02
2023-11-22T20:51:14.840Z,93.18
2023-11-22T20:53:17.861Z,92.96
2023-11-22T20:55:20.633Z,92.89
2023-11-22T20:57:23.488Z,92.79
2023-11-22T20:59:26.301Z,92.59
2023-11-22T21:01:29.200Z,92.77
2023-11-22T21:03:32.289Z,92.99
2023-11-22T21:05:35.045Z,93.67
2023-11-22T21:07:38.612Z,93.13
2023-11-22T21:09:41.381Z,93.84
2023-11-22T21:11:44.493Z,93.92
2023-11-22T21:13:47.623Z,93.62
2023-11-22T21:15:51.874Z,92.93
2023-11-22T21:17:56.218Z,93.05
2023-11-22T21:19:59.019Z,93.09
2023-11-22T21:22:01.805Z,93.16
2023-11-22T21:24:05.167Z,93.05
2023-11-22T21:26:09.394Z,92.86
2023-11-22T21:28:12.352Z,92.75
2023-11-22T21:30:15.429Z,92.66
2023-11-22T21:32:18.334Z,91.50
2023-11-22T21:34:21.391Z,91.88
2023-11-22T21:36:24.180Z,91.99
2023-11-22T21:38:30.506Z,92.33
2023-11-22T21:40:34.972Z,91.76
2023-11-22T21:42:37.928Z,90.83
2023-11-22T21:44:40.660Z,91.23
2023-11-22T21:46:43.562Z,90.94
2023-11-22T21:48:46.773Z,91.14
2023-11-22T21:50:49.700Z,90.51
2023-11-22T21:52:53.549Z,90.81
2023-11-22T21:54:56.480Z,90.42
2023-11-22T21:57:00.367Z,90.45
2023-11-22T21:59:03.800Z,90.87
2023-11-22T22:01:12.585Z,90.42
2023-11-22T22:03:16.197Z,90.33
2023-11-22T22:05:19.036Z,90.45
2023-11-22T22:07:21.978Z,90.59
2023-11-22T22:09:24.893Z,90.96
2023-11-22T22:11:28.579Z,90.67
2023-11-22T22:13:31.396Z,91.13
2023-11-22T22:15:34.218Z,91.47
2023-11-22T22:17:37.114Z,90.01
2023-11-22T22:19:40.191Z,90.53
2023-11-22T22:21:43.021Z,90.63
2023-11-22T22:23:45.872Z,90.73
2023-11-22T22:25:48.993Z,90.74
2023-11-22T22:27:51.827Z,90.11
2023-11-22T22:29:54.645Z,90.15
2023-11-22T22:31:57.437Z,90.12
2023-11-22T22:34:00.187Z,90.65
2023-11-22T22:36:03.085Z,90.23
2023-11-22T22:38:05.900Z,90.69
2023-11-22T22:40:10.285Z,90.56
2023-11-22T22:42:13.144Z,90.48
2023-11-22T22:44:15.901Z,90.19
2023-11-22T22:46:19.778Z,90.67
2023-11-22T22:48:23.472Z,91.18
2023-11-22T22:50:27.068Z,90.91
2023-11-22T22:52:30.642Z,90.41
2023-11-22T22:54:33.491Z,90.83
2023-11-22T22:56:36.322Z,90.68
2023-11-22T22:58:39.249Z,89.61
2023-11-22T23:00:42.773Z,90.00
2023-11-22T23:02:45.752Z,90.27
2023-11-22T23:04:49.332Z,90.71
2023-11-22T23:06:53.198Z,89.98
2023-11-22T23:08:57.199Z,89.99
2023-11-22T23:11:00.420Z,89.90
2023-11-22T23:13:03.816Z,90.14
2023-11-22T23:15:08.780Z,89.48
2023-11-22T23:17:12.531Z,89.61
2023-11-22T23:19:15.432Z,89.08
2023-11-22T23:21:18.328Z,89.42
2023-11-22T23:23:21.211Z,89.52
2023-11-22T23:25:24.498Z,89.84
2023-11-22T23:27:27.284Z,89.38
2023-11-22T23:29:32.088Z,89.78
2023-11-22T23:31:40.778Z,89.12
2023-11-22T23:33:44.025Z,89.55
2023-11-22T23:35:49.443Z,89.33
2023-11-22T23:37:52.358Z,88.86
2023-11-22T23:39:59.706Z,88.70
2023-11-22T23:42:04.285Z,88.18
2023-11-22T23:44:07.374Z,88.36
2023-11-22T23:46:11.915Z,88.17
2023-11-22T23:48:14.992Z,88.11
2023-11-22T23:50:18.576Z,88.62
2023-11-22T23:52:21.543Z,88.19
2023-11-22T23:54:24.838Z,87.95
2023-11-22T23:56:27.682Z,88.26
2023-11-22T23:58:31.765Z,87.82
